createdAt,value
2023-04-20T00:02:21.631Z,8.80
2023-04-20T00:04:49.913Z,8.63
2023-04-20T00:07:18.032Z,9.10
2023-04-20T00:09:46.202Z,8.50
2023-04-20T00:12:15.687Z,9.60
2023-04-20T00:14:43.787Z,9.50
2023-04-20T00:17:11.940Z,9.13
2023-04-20T00:19:40.362Z,8.63
2023-04-20T00:22:08.493Z,9.20
2023-04-20T00:24:36.637Z,8.60
2023-04-20T00:27:05.022Z,8.07
2023-04-20T00:29:35.209Z,7.80
2023-04-20T00:32:03.529Z,8.47
2023-04-20T00:34:31.640Z,9.67
2023-04-20T00:36:59.776Z,8.20
2023-04-20T00:39:27.890Z,7.50
2023-04-20T00:41:56.617Z,8.47
2023-04-20T00:44:24.723Z,8.30
2023-04-20T00:46:56.386Z,7.80
2023-04-20T00:49:28.480Z,8.13
2023-04-20T00:51:56.976Z,8.53
2023-04-20T00:54:26.176Z,8.03
2023-04-20T00:56:57.949Z,9.07
2023-04-20T00:59:26.251Z,8.47
2023-04-20T01:01:55.973Z,8.20
2023-04-20T01:04:24.693Z,9.03
2023-04-20T01:06:52.890Z,7.63
2023-04-20T01:09:22.001Z,8.27
2023-04-20T01:11:50.330Z,8.33
2023-04-20T01:14:18.454Z,8.00
2023-04-20T01:16:47.173Z,8.20
2023-04-20T01:19:17.226Z,8.00
2023-04-20T01:21:45.495Z,9.43
2023-04-20T01:24:14.962Z,7.63
2023-04-20T01:26:43.097Z,8.90
2023-04-20T01:29:11.246Z,8.03
2023-04-20T01:31:39.400Z,8.20
2023-04-20T01:34:07.548Z,8.37
2023-04-20T01:36:35.885Z,8.73
2023-04-20T01:39:04.107Z,7.77
2023-04-20T01:41:33.558Z,7.67
2023-04-20T01:44:01.656Z,7.97
2023-04-20T01:46:29.783Z,8.27
2023-04-20T01:48:57.894Z,7.83
2023-04-20T01:51:26.133Z,7.30
2023-04-20T01:53:54.248Z,7.77
2023-04-20T01:56:22.402Z,7.43
2023-04-20T01:58:51.835Z,8.40
2023-04-20T02:01:20.127Z,7.57
2023-04-20T02:03:50.477Z,8.03
2023-04-20T02:06:18.868Z,7.93
2023-04-20T02:08:47.017Z,8.30
2023-04-20T02:11:15.268Z,7.10
2023-04-20T02:13:43.384Z,8.47
2023-04-20T02:16:12.990Z,7.63
2023-04-20T02:18:41.144Z,7.17
2023-04-20T02:21:09.272Z,8.57
2023-04-20T02:23:37.343Z,8.00
2023-04-20T02:26:05.508Z,7.80
2023-04-20T02:28:33.761Z,8.37
2023-04-20T02:31:01.959Z,7.30
2023-04-20T02:33:32.621Z,7.10
2023-04-20T02:36:00.845Z,7.33
2023-04-20T02:38:28.970Z,8.93
2023-04-20T02:40:57.130Z,9.07
2023-04-20T02:43:25.469Z,8.60
2023-04-20T02:45:53.621Z,8.70
2023-04-20T02:48:21.980Z,9.30
2023-04-20T02:50:51.410Z,8.67
2023-04-20T02:53:19.796Z,9.10
2023-04-20T02:55:47.900Z,9.17
2023-04-20T02:58:17.631Z,8.93
2023-04-20T03:00:45.832Z,8.77
2023-04-20T03:03:14.934Z,9.63
2023-04-20T03:05:43.161Z,9.23
2023-04-20T03:08:12.605Z,8.63
2023-04-20T03:10:40.960Z,10.00
2023-04-20T03:13:09.178Z,8.63
2023-04-20T03:15:39.410Z,8.23
2023-04-20T03:18:07.665Z,7.67
2023-04-20T03:20:35.819Z,8.23
2023-04-20T03:23:04.085Z,7.40
2023-04-20T03:25:33.582Z,7.30
2023-04-20T03:28:01.718Z,6.73
2023-04-20T03:30:30.396Z,6.57
2023-04-20T03:32:58.542Z,6.67
2023-04-20T03:35:27.035Z,6.60
2023-04-20T03:37:55.416Z,5.03
2023-04-20T03:40:23.791Z,4.90
2023-04-20T03:42:53.214Z,4.70
2023-04-20T03:45:21.566Z,4.10
2023-04-20T03:47:49.734Z,3.80
2023-04-20T03:50:17.953Z,3.80
2023-04-20T03:52:46.074Z,3.70
2023-04-20T03:55:14.167Z,4.00
2023-04-20T03:57:42.337Z,3.70
2023-04-20T04:00:14.057Z,4.00
2023-04-20T04:02:42.295Z,4.00
2023-04-20T04:05:10.986Z,4.17
2023-04-20T04:07:39.109Z,4.03
2023-04-20T04:10:10.407Z,3.30
2023-04-20T04:12:38.638Z,3.77
2023-04-20T04:15:08.780Z,3.93
2023-04-20T04:17:38.264Z,4.23
2023-04-20T04:20:09.219Z,3.90
2023-04-20T04:22:37.406Z,3.67
2023-04-20T04:25:06.946Z,3.83
2023-04-20T04:27:35.612Z,3.70
2023-04-20T04:30:04.569Z,4.10
2023-04-20T04:32:34.418Z,3.77
2023-04-20T04:35:04.494Z,5.00
2023-04-20T04:37:32.649Z,3.90
2023-04-20T04:40:02.892Z,3.47
2023-04-20T04:42:32.319Z,4.33
2023-04-20T04:45:02.036Z,4.80
2023-04-20T04:47:30.615Z,4.33
2023-04-20T04:50:00.846Z,4.17
2023-04-20T04:52:31.102Z,4.23
2023-04-20T04:54:59.275Z,4.40
2023-04-20T04:57:27.837Z,4.40
2023-04-20T04:59:56.002Z,4.83
2023-04-20T05:02:24.245Z,5.07
2023-04-20T05:04:52.675Z,5.00
2023-04-20T05:07:21.216Z,6.17
2023-04-20T05:09:50.679Z,5.50
2023-04-20T05:12:19.342Z,6.77
2023-04-20T05:14:47.461Z,6.07
2023-04-20T05:17:15.560Z,6.47
2023-04-20T05:19:43.754Z,5.87
2023-04-20T05:22:12.003Z,6.53
2023-04-20T05:24:40.371Z,6.07
2023-04-20T05:27:11.283Z,6.97
2023-04-20T05:29:39.441Z,8.33
2023-04-20T05:32:08.214Z,7.60
2023-04-20T05:34:36.436Z,10.33
2023-04-20T05:37:06.535Z,7.57
2023-04-20T05:39:34.673Z,7.10
2023-04-20T05:42:02.791Z,7.60
2023-04-20T05:44:33.872Z,8.17
2023-04-20T05:47:01.950Z,7.63
2023-04-20T05:49:30.089Z,7.63
2023-04-20T05:51:58.517Z,8.27
2023-04-20T05:54:28.311Z,8.37
2023-04-20T05:56:57.362Z,8.80
2023-04-20T05:59:26.619Z,9.60
2023-04-20T06:01:56.220Z,9.93
2023-04-20T06:04:24.669Z,9.80
2023-04-20T06:06:53.039Z,9.50
2023-04-20T06:09:21.515Z,9.17
2023-04-20T06:11:49.676Z,9.80
2023-04-20T06:14:17.830Z,9.23
2023-04-20T06:16:45.961Z,10.07
2023-04-20T06:19:15.670Z,9.50
2023-04-20T06:21:44.058Z,9.57
2023-04-20T06:24:12.203Z,9.90
2023-04-20T06:26:40.509Z,10.07
2023-04-20T06:29:08.627Z,10.60
2023-04-20T06:31:36.965Z,10.90
2023-04-20T06:34:05.295Z,9.97
2023-04-20T06:36:34.822Z,10.90
2023-04-20T06:39:03.136Z,11.07
2023-04-20T06:41:31.302Z,11.07
2023-04-20T06:43:59.409Z,12.23
2023-04-20T06:46:27.829Z,11.53
2023-04-20T06:48:56.031Z,11.20
2023-04-20T06:51:24.299Z,10.23
2023-04-20T06:53:54.459Z,10.00
2023-04-20T06:56:22.857Z,9.90
2023-04-20T06:58:51.049Z,9.73
2023-04-20T07:01:19.279Z,9.63
2023-04-20T07:03:47.734Z,9.07
2023-04-20T07:06:16.984Z,9.13
2023-04-20T07:08:45.159Z,8.90
2023-04-20T07:11:14.785Z,9.60
2023-04-20T07:13:42.953Z,9.80
2023-04-20T07:16:11.346Z,9.70
2023-04-20T07:18:39.511Z,8.83
2023-04-20T07:21:07.714Z,10.00
2023-04-20T07:23:35.806Z,9.70
2023-04-20T07:26:03.930Z,10.40
2023-04-20T07:28:34.298Z,9.80
2023-04-20T07:31:02.403Z,8.70
2023-04-20T07:33:31.971Z,9.30
2023-04-20T07:36:00.163Z,9.10
2023-04-20T07:38:28.447Z,9.47
2023-04-20T07:40:56.533Z,8.97
2023-04-20T07:43:24.758Z,9.53
2023-04-20T07:45:54.371Z,8.63
2023-04-20T07:48:22.544Z,8.53
2023-04-20T07:50:50.663Z,8.80
2023-04-20T07:53:18.797Z,8.90
2023-04-20T07:55:47.776Z,8.57
2023-04-20T07:58:17.444Z,8.90
2023-04-20T08:00:47.388Z,9.30
2023-04-20T08:03:17.024Z,9.20
2023-04-20T08:05:45.680Z,9.17
2023-04-20T08:08:13.926Z,8.47
2023-04-20T08:10:42.075Z,8.87
2023-04-20T08:13:10.424Z,10.20
2023-04-20T08:15:39.089Z,9.30
2023-04-20T08:18:07.285Z,9.10
2023-04-20T08:20:36.889Z,9.17
2023-04-20T08:23:04.991Z,10.00
2023-04-20T08:25:33.349Z,9.43
2023-04-20T08:28:01.783Z,10.10
2023-04-20T08:30:30.773Z,9.90
2023-04-20T08:33:00.208Z,9.70
2023-04-20T08:35:28.406Z,9.27
2023-04-20T08:37:57.902Z,9.90
2023-04-20T08:40:28.210Z,9.93
2023-04-20T08:42:57.455Z,11.40
2023-04-20T08:45:25.625Z,11.47
2023-04-20T08:47:54.721Z,10.80
2023-04-20T08:50:23.298Z,10.13
2023-04-20T08:52:51.511Z,10.73
2023-04-20T08:55:21.388Z,10.93
2023-04-20T08:57:50.416Z,11.60
2023-04-20T09:00:19.334Z,11.23
2023-04-20T09:02:52.521Z,11.83
2023-04-20T09:05:29.160Z,10.10
2023-04-20T09:07:59.238Z,11.30
2023-04-20T09:10:41.360Z,11.00
2023-04-20T09:13:10.015Z,11.63
2023-04-20T09:15:38.106Z,10.57
2023-04-20T09:18:15.314Z,11.50
2023-04-20T09:20:43.485Z,10.47
2023-04-20T09:23:16.004Z,10.87
2023-04-20T09:25:50.977Z,10.00
2023-04-20T09:28:19.086Z,10.70
2023-04-20T09:30:51.498Z,10.87
2023-04-20T09:33:20.207Z,9.63
2023-04-20T09:35:48.367Z,10.07
2023-04-20T09:38:18.268Z,9.90
2023-04-20T09:40:47.851Z,10.37
2023-04-20T09:43:21.474Z,10.50
2023-04-20T09:45:50.453Z,10.07
2023-04-20T09:48:20.839Z,9.53
2023-04-20T09:50:51.550Z,10.00
2023-04-20T09:53:20.982Z,10.07
2023-04-20T09:55:52.187Z,9.53
2023-04-20T09:58:21.832Z,10.10
2023-04-20T10:00:50.502Z,9.60
2023-04-20T10:03:20.182Z,9.80
2023-04-20T10:05:49.367Z,9.33
2023-04-20T10:08:18.352Z,10.83
2023-04-20T10:10:48.673Z,9.23
2023-04-20T10:13:19.508Z,8.93
2023-04-20T10:15:48.295Z,9.97
2023-04-20T10:18:23.815Z,8.77
2023-04-20T10:21:04.836Z,9.63
2023-04-20T10:23:33.004Z,9.40
2023-04-20T10:26:02.598Z,9.53
2023-04-20T10:28:41.627Z,9.53
2023-04-20T10:31:13.545Z,10.30
2023-04-20T10:33:55.217Z,9.27
2023-04-20T10:36:29.895Z,8.50
2023-04-20T10:38:58.749Z,8.30
2023-04-20T10:41:27.139Z,8.43
2023-04-20T10:43:56.655Z,8.67
2023-04-20T10:46:26.225Z,9.43
2023-04-20T10:48:56.351Z,8.65
2023-04-20T10:51:26.008Z,9.48
2023-04-20T10:54:04.905Z,9.68
2023-04-20T10:56:44.621Z,9.60
2023-04-20T10:59:16.538Z,9.83
2023-04-20T11:01:46.799Z,9.07
2023-04-20T11:04:18.415Z,9.90
2023-04-20T11:06:48.755Z,9.20
2023-04-20T11:09:22.761Z,9.57
2023-04-20T11:12:01.881Z,9.53
2023-04-20T11:14:34.465Z,9.13
2023-04-20T11:17:03.079Z,9.70
2023-04-20T11:19:33.813Z,9.43
2023-04-20T11:22:03.201Z,10.07
2023-04-20T11:24:34.074Z,9.60
2023-04-20T11:27:04.746Z,11.07
2023-04-20T11:29:36.669Z,10.13
2023-04-20T11:32:08.469Z,10.50
2023-04-20T11:34:39.072Z,10.90
2023-04-20T11:37:10.065Z,9.80
2023-04-20T11:39:39.187Z,10.60
2023-04-20T11:42:07.482Z,10.50
2023-04-20T11:44:37.473Z,10.77
2023-04-20T11:47:05.985Z,10.30
2023-04-20T11:49:34.034Z,10.20
2023-04-20T11:52:02.267Z,10.40
2023-04-20T11:54:33.889Z,10.30
2023-04-20T11:57:02.509Z,10.47
2023-04-20T11:59:30.598Z,10.60
2023-04-20T12:02:02.612Z,10.07
2023-04-20T12:04:31.398Z,10.47
2023-04-20T12:06:59.748Z,11.27
2023-04-20T12:09:27.983Z,10.30
2023-04-20T12:11:56.033Z,11.03
2023-04-20T12:14:24.034Z,10.93
2023-04-20T12:16:52.061Z,10.77
2023-04-20T12:19:21.437Z,10.43
2023-04-20T12:21:49.495Z,12.13
2023-04-20T12:24:17.717Z,10.77
2023-04-20T12:26:45.919Z,11.03
2023-04-20T12:29:14.131Z,11.87
2023-04-20T12:31:42.228Z,11.93
2023-04-20T12:34:10.671Z,11.87
2023-04-20T12:36:40.266Z,11.90
2023-04-20T12:39:08.343Z,12.17
2023-04-20T12:41:36.380Z,13.17
2023-04-20T12:44:07.039Z,12.40
2023-04-20T12:46:44.019Z,13.53
2023-04-20T12:49:12.118Z,14.07
2023-04-20T12:51:41.476Z,13.87
2023-04-20T12:54:09.740Z,15.87
2023-04-20T12:56:37.781Z,14.47
2023-04-20T12:59:05.868Z,13.87
2023-04-20T13:01:34.043Z,15.70
2023-04-20T13:04:02.416Z,14.90
2023-04-20T13:06:32.563Z,15.03
2023-04-20T13:09:02.267Z,15.73
2023-04-20T13:11:31.430Z,15.80
2023-04-20T13:14:00.690Z,16.20
2023-04-20T13:16:29.248Z,15.83
2023-04-20T13:18:57.421Z,16.03
2023-04-20T13:21:25.798Z,15.83
2023-04-20T13:23:54.893Z,16.67
2023-04-20T13:26:26.271Z,15.70
2023-04-20T13:28:57.435Z,15.80
2023-04-20T13:31:25.613Z,15.43
2023-04-20T13:33:54.688Z,15.93
2023-04-20T13:36:23.346Z,16.23
2023-04-20T13:38:53.348Z,15.80
2023-04-20T13:41:21.808Z,17.40
2023-04-20T13:43:51.456Z,16.53
2023-04-20T13:46:20.998Z,15.87
2023-04-20T13:48:49.150Z,15.77
2023-04-20T13:51:17.223Z,15.67
2023-04-20T13:53:45.309Z,17.13
2023-04-20T13:56:13.346Z,18.00
2023-04-20T13:58:41.478Z,18.07
2023-04-20T14:01:13.286Z,16.47
2023-04-20T14:03:42.782Z,15.37
2023-04-20T14:06:11.198Z,17.10
2023-04-20T14:08:39.385Z,19.40
2023-04-20T14:11:07.507Z,18.77
2023-04-20T14:13:35.791Z,19.43
2023-04-20T14:16:10.750Z,17.30
2023-04-20T14:18:40.161Z,17.27
2023-04-20T14:21:08.533Z,17.70
2023-04-20T14:23:36.676Z,19.40
2023-04-20T14:26:04.873Z,18.37
2023-04-20T14:28:33.608Z,18.17
2023-04-20T14:31:03.362Z,18.77
2023-04-20T14:33:32.829Z,17.87
2023-04-20T14:36:00.926Z,20.03
2023-04-20T14:38:29.025Z,19.40
2023-04-20T14:40:57.067Z,19.40
2023-04-20T14:43:25.590Z,20.10
2023-04-20T14:45:55.131Z,18.13
2023-04-20T14:48:24.032Z,18.77
2023-04-20T14:50:54.402Z,19.43
2023-04-20T14:53:22.733Z,20.67
2023-04-20T14:55:51.152Z,20.87
2023-04-20T14:58:20.491Z,19.80
2023-04-20T15:00:49.541Z,22.20
2023-04-20T15:03:18.672Z,20.87
2023-04-20T15:05:48.221Z,21.20
2023-04-20T15:08:17.668Z,19.93
2023-04-20T15:10:45.737Z,21.40
2023-04-20T15:13:14.676Z,19.67
2023-04-20T15:18:15.720Z,21.70
2023-04-20T15:20:43.816Z,19.80
2023-04-20T15:23:12.031Z,18.77
2023-04-20T15:25:41.433Z,18.57
2023-04-20T15:28:09.478Z,20.23
2023-04-20T15:30:37.559Z,19.97
2023-04-20T15:33:06.114Z,18.33
2023-04-20T15:35:34.505Z,18.83
2023-04-20T15:38:03.141Z,19.73
2023-04-20T15:40:31.221Z,18.80
2023-04-20T15:43:00.684Z,19.30
2023-04-20T15:45:29.969Z,20.10
2023-04-20T15:47:58.720Z,19.57
2023-04-20T15:50:27.123Z,22.13
2023-04-20T15:52:55.882Z,17.77
2023-04-20T15:55:24.089Z,18.87
2023-04-20T15:57:56.956Z,17.57
2023-04-20T16:00:29.010Z,17.53
2023-04-20T16:02:57.254Z,20.17
2023-04-20T16:05:26.762Z,20.13
2023-04-20T16:07:55.006Z,19.43
2023-04-20T16:10:23.540Z,18.97
2023-04-20T16:12:51.935Z,20.23
2023-04-20T16:15:20.230Z,20.17
2023-04-20T16:17:49.681Z,20.17
2023-04-20T16:20:17.843Z,19.57
2023-04-20T16:22:46.058Z,19.00
2023-04-20T16:25:22.490Z,19.17
2023-04-20T16:27:51.336Z,20.83
2023-04-20T16:30:19.583Z,19.43
2023-04-20T16:32:49.604Z,18.10
2023-04-20T16:35:18.104Z,20.23
2023-04-20T16:37:46.880Z,21.17
2023-04-20T16:40:15.066Z,19.27
2023-04-20T16:42:43.164Z,18.97
2023-04-20T16:45:11.757Z,19.63
2023-04-20T16:47:40.047Z,19.60
2023-04-20T16:50:12.337Z,20.70
2023-04-20T16:52:40.479Z,19.63
2023-04-20T16:55:09.861Z,21.47
2023-04-20T16:57:37.998Z,18.70
2023-04-20T17:00:09.504Z,19.53
2023-04-20T17:02:37.952Z,19.63
2023-04-20T17:05:07.334Z,21.27
2023-04-20T17:07:37.278Z,19.37
2023-04-20T17:10:07.130Z,19.43
2023-04-20T17:12:35.245Z,20.93
2023-04-20T17:15:03.407Z,20.07
2023-04-20T17:17:31.669Z,20.83
2023-04-20T17:19:59.733Z,20.43
2023-04-20T17:22:28.274Z,21.13
2023-04-20T17:24:57.648Z,20.70
2023-04-20T17:27:25.767Z,19.37
2023-04-20T17:29:55.731Z,21.93
2023-04-20T17:32:24.085Z,19.63
2023-04-20T17:34:53.664Z,20.97
2023-04-20T17:37:22.917Z,20.23
2023-04-20T17:39:50.997Z,21.27
2023-04-20T17:42:20.408Z,20.23
2023-04-20T17:44:48.444Z,21.10
2023-04-20T17:47:16.523Z,21.13
2023-04-20T17:49:44.671Z,22.23
2023-04-20T17:52:15.143Z,21.20
2023-04-20T17:54:43.288Z,24.77
2023-04-20T17:57:11.445Z,20.23
2023-04-20T17:59:42.217Z,22.57
2023-04-20T18:02:11.816Z,21.90
2023-04-20T18:04:40.766Z,24.30
2023-04-20T18:07:08.997Z,26.20
2023-04-20T18:09:38.778Z,23.53
2023-04-20T18:12:08.589Z,27.00
2023-04-20T18:14:36.655Z,25.20
2023-04-20T18:17:06.172Z,29.17
2023-04-20T18:19:34.226Z,33.40
2023-04-20T18:22:02.459Z,32.23
2023-04-20T18:24:30.564Z,27.50
2023-04-20T18:26:58.981Z,24.83
2023-04-20T18:29:28.893Z,24.17
2023-04-20T18:31:59.150Z,25.73
2023-04-20T18:34:30.912Z,27.83
2023-04-20T18:36:59.548Z,32.30
2023-04-20T18:39:28.072Z,28.57
2023-04-20T18:41:56.102Z,29.27
2023-04-20T18:44:24.247Z,28.10
2023-04-20T18:46:52.411Z,28.33
2023-04-20T18:49:20.541Z,28.67
2023-04-20T18:51:49.932Z,30.17
2023-04-20T18:54:18.529Z,28.17
2023-04-20T18:56:46.825Z,25.13
2023-04-20T18:59:14.933Z,28.37
2023-04-20T19:01:42.963Z,29.83
2023-04-20T19:04:11.261Z,30.27
2023-04-20T19:06:39.541Z,28.70
2023-04-20T19:09:09.067Z,32.70
2023-04-20T19:11:37.266Z,30.07
2023-04-20T19:14:05.742Z,31.40
2023-04-20T19:16:34.784Z,27.93
2023-04-20T19:19:03.925Z,30.23
2023-04-20T19:21:32.591Z,28.97
2023-04-20T19:24:00.666Z,28.47
2023-04-20T19:26:30.115Z,30.53
2023-04-20T19:29:00.414Z,27.87
2023-04-20T19:31:33.953Z,30.83
2023-04-20T19:34:02.098Z,30.00
2023-04-20T19:36:30.243Z,30.17
2023-04-20T19:38:58.477Z,30.93
2023-04-20T19:41:28.092Z,29.53
2023-04-20T19:43:59.139Z,28.20
2023-04-20T19:46:27.422Z,31.63
2023-04-20T19:48:55.457Z,29.43
2023-04-20T19:51:25.406Z,29.00
2023-04-20T19:53:53.983Z,30.07
2023-04-20T19:56:22.046Z,31.37
2023-04-20T19:58:50.129Z,28.63
2023-04-20T20:01:20.000Z,29.03
2023-04-20T20:03:48.219Z,29.47
2023-04-20T20:06:16.739Z,31.27
2023-04-20T20:08:44.843Z,28.63
2023-04-20T20:11:12.956Z,26.23
2023-04-20T20:13:41.301Z,28.00
2023-04-20T20:16:10.160Z,26.43
2023-04-20T20:18:39.725Z,22.43
2023-04-20T20:21:07.748Z,24.33
2023-04-20T20:23:35.850Z,23.17
2023-04-20T20:26:04.035Z,27.07
2023-04-20T20:28:32.219Z,23.73
2023-04-20T20:31:00.409Z,24.20
2023-04-20T20:33:28.508Z,23.83
2023-04-20T20:35:57.948Z,22.07
2023-04-20T20:38:26.066Z,23.73
2023-04-20T20:40:54.920Z,22.07
2023-04-20T20:43:25.106Z,22.30
2023-04-20T20:45:53.259Z,23.30
2023-04-20T20:48:21.738Z,21.63
2023-04-20T20:50:49.812Z,21.60
2023-04-20T20:53:20.413Z,20.80
2023-04-20T20:55:48.572Z,23.40
2023-04-20T20:58:16.624Z,22.67
2023-04-20T21:00:46.770Z,22.83
2023-04-20T21:03:15.521Z,22.37
2023-04-20T21:05:43.701Z,20.73
2023-04-20T21:08:11.886Z,19.40
2023-04-20T21:10:41.361Z,21.73
2023-04-20T21:13:09.569Z,20.07
2023-04-20T21:15:37.687Z,23.47
2023-04-20T21:18:06.099Z,20.00
2023-04-20T21:20:35.306Z,21.53
2023-04-20T21:23:03.445Z,20.47
2023-04-20T21:25:31.524Z,19.50
2023-04-20T21:28:00.990Z,25.57
2023-04-20T21:30:29.226Z,19.90
2023-04-20T21:32:57.348Z,21.10
2023-04-20T21:35:25.764Z,18.60
2023-04-20T21:37:54.234Z,21.53
2023-04-20T21:40:23.989Z,19.43
2023-04-20T21:42:52.096Z,20.50
2023-04-20T21:45:21.745Z,21.13
2023-04-20T21:47:49.867Z,17.10
2023-04-20T21:50:18.496Z,20.70
2023-04-20T21:52:46.615Z,23.07
2023-04-20T21:55:14.742Z,20.17
2023-04-20T21:57:42.851Z,18.90
2023-04-20T22:00:12.600Z,21.30
2023-04-20T22:02:42.686Z,19.23
2023-04-20T22:05:11.470Z,21.20
2023-04-20T22:07:39.733Z,20.80
2023-04-20T22:10:09.807Z,21.83
2023-04-20T22:12:40.542Z,20.70
2023-04-20T22:15:11.833Z,18.90
2023-04-20T22:17:40.580Z,21.93
2023-04-20T22:20:12.577Z,22.10
2023-04-20T22:22:41.314Z,20.03
2023-04-20T22:25:11.219Z,21.50
2023-04-20T22:27:39.545Z,22.23
2023-04-20T22:30:10.090Z,23.97
2023-04-20T22:32:38.854Z,23.10
2023-04-20T22:35:10.045Z,24.77
2023-04-20T22:37:38.153Z,26.43
2023-04-20T22:40:08.276Z,25.93
2023-04-20T22:42:36.935Z,24.57
2023-04-20T22:45:06.457Z,24.97
2023-04-20T22:47:34.634Z,24.00
2023-04-20T22:50:03.164Z,25.30
2023-04-20T22:52:32.961Z,24.10
2023-04-20T22:55:01.624Z,26.00
2023-04-20T22:57:29.727Z,27.33
2023-04-20T22:59:57.851Z,24.90
2023-04-20T23:02:26.805Z,25.63
2023-04-20T23:04:55.804Z,28.87
2023-04-20T23:07:24.214Z,29.47
2023-04-20T23:09:53.770Z,31.00
2023-04-20T23:12:21.937Z,24.67
2023-04-20T23:14:50.726Z,29.37
2023-04-20T23:17:19.108Z,26.90
2023-04-20T23:19:47.313Z,29.40
2023-04-20T23:22:15.477Z,27.33
2023-04-20T23:24:43.588Z,28.97
2023-04-20T23:27:13.075Z,27.20
2023-04-20T23:29:41.426Z,28.73
2023-04-20T23:32:09.624Z,31.80
2023-04-20T23:34:37.843Z,32.73
2023-04-20T23:37:06.106Z,29.53
2023-04-20T23:39:38.037Z,27.13
2023-04-20T23:42:06.435Z,31.27
2023-04-20T23:44:36.684Z,31.43
2023-04-20T23:47:04.862Z,32.07
2023-04-20T23:49:32.993Z,32.57
2023-04-20T23:52:01.109Z,32.00
2023-04-20T23:54:29.817Z,31.67
2023-04-20T23:56:59.335Z,33.30
2023-04-20T23:59:27.455Z,33.43
